sensor_id;sensor_type;location;lat;lon;timestamp;temperature;humidity
15262;DHT22;7733;51.554;13.590;2023-05-07T00:00:05;10.20;99.90
15262;DHT22;7733;51.554;13.590;2023-05-07T00:02:35;10.20;99.90
15262;DHT22;7733;51.554;13.590;2023-05-07T00:05:02;10.20;99.90
15262;DHT22;7733;51.554;13.590;2023-05-07T00:07:28;10.20;99.90
15262;DHT22;7733;51.554;13.590;2023-05-07T00:09:53;10.10;99.90
15262;DHT22;7733;51.554;13.590;2023-05-07T00:12:20;10.10;99.90
15262;DHT22;7733;51.554;13.590;2023-05-07T00:14:45;10.10;99.90
15262;DHT22;7733;51.554;13.590;2023-05-07T00:17:11;10.10;99.90
15262;DHT22;7733;51.554;13.590;2023-05-07T00:19:37;10.00;99.90
15262;DHT22;7733;51.554;13.590;2023-05-07T00:22:03;10.10;99.90
15262;DHT22;7733;51.554;13.590;2023-05-07T00:24:28;9.90;99.90
15262;DHT22;7733;51.554;13.590;2023-05-07T00:26:54;9.90;99.90
15262;DHT22;7733;51.554;13.590;2023-05-07T00:29:20;10.00;99.90
15262;DHT22;7733;51.554;13.590;2023-05-07T00:31:46;10.00;99.90
15262;DHT22;7733;51.554;13.590;2023-05-07T00:34:11;9.90;99.90
15262;DHT22;7733;51.554;13.590;2023-05-07T00:36:37;10.00;99.90
15262;DHT22;7733;51.554;13.590;2023-05-07T00:39:03;10.00;99.90
15262;DHT22;7733;51.554;13.590;2023-05-07T00:41:29;10.00;99.90
15262;DHT22;7733;51.554;13.590;2023-05-07T00:43:56;9.90;99.90
15262;DHT22;7733;51.554;13.590;2023-05-07T00:46:23;9.80;99.90
15262;DHT22;7733;51.554;13.590;2023-05-07T00:48:50;9.90;99.90
15262;DHT22;7733;51.554;13.590;2023-05-07T00:51:17;9.90;99.90
15262;DHT22;7733;51.554;13.590;2023-05-07T00:53:44;9.80;99.90
15262;DHT22;7733;51.554;13.590;2023-05-07T00:56:10;9.90;99.90
15262;DHT22;7733;51.554;13.590;2023-05-07T00:58:36;9.90;99.90
15262;DHT22;7733;51.554;13.590;2023-05-07T01:01:03;9.90;99.90
15262;DHT22;7733;51.554;13.590;2023-05-07T01:03:28;9.90;99.90
15262;DHT22;7733;51.554;13.590;2023-05-07T01:05:56;9.80;99.90
15262;DHT22;7733;51.554;13.590;2023-05-07T01:08:24;9.90;99.90
15262;DHT22;7733;51.554;13.590;2023-05-07T01:10:53;9.90;99.90
15262;DHT22;7733;51.554;13.590;2023-05-07T01:13:20;9.80;99.90
15262;DHT22;7733;51.554;13.590;2023-05-07T01:15:46;9.70;99.90
15262;DHT22;7733;51.554;13.590;2023-05-07T01:18:12;9.70;99.90
15262;DHT22;7733;51.554;13.590;2023-05-07T01:20:38;9.70;99.90
15262;DHT22;7733;51.554;13.590;2023-05-07T01:23:05;9.70;99.90
15262;DHT22;7733;51.554;13.590;2023-05-07T01:25:32;9.80;99.90
15262;DHT22;7733;51.554;13.590;2023-05-07T01:27:58;9.70;99.90
15262;DHT22;7733;51.554;13.590;2023-05-07T01:30:27;9.70;99.90
15262;DHT22;7733;51.554;13.590;2023-05-07T01:33:04;9.90;99.90
15262;DHT22;7733;51.554;13.590;2023-05-07T01:35:53;9.80;99.90
15262;DHT22;7733;51.554;13.590;2023-05-07T01:38:21;9.90;99.90
15262;DHT22;7733;51.554;13.590;2023-05-07T01:40:48;9.80;99.90
15262;DHT22;7733;51.554;13.590;2023-05-07T01:43:14;9.80;99.90
15262;DHT22;7733;51.554;13.590;2023-05-07T01:45:41;9.70;99.90
15262;DHT22;7733;51.554;13.590;2023-05-07T01:48:09;9.70;99.90
15262;DHT22;7733;51.554;13.590;2023-05-07T01:50:37;9.70;99.90
15262;DHT22;7733;51.554;13.590;2023-05-07T01:53:03;9.70;99.90
15262;DHT22;7733;51.554;13.590;2023-05-07T01:55:29;9.70;99.90
15262;DHT22;7733;51.554;13.590;2023-05-07T01:57:54;9.60;99.90
15262;DHT22;7733;51.554;13.590;2023-05-07T02:00:20;9.60;99.90
15262;DHT22;7733;51.554;13.590;2023-05-07T02:02:46;9.60;99.90
15262;DHT22;7733;51.554;13.590;2023-05-07T02:05:12;9.60;99.90
15262;DHT22;7733;51.554;13.590;2023-05-07T02:07:38;9.60;99.90
15262;DHT22;7733;51.554;13.590;2023-05-07T02:10:04;9.60;99.90
15262;DHT22;7733;51.554;13.590;2023-05-07T02:12:30;9.40;99.90
15262;DHT22;7733;51.554;13.590;2023-05-07T02:14:56;9.50;99.90
15262;DHT22;7733;51.554;13.590;2023-05-07T02:17:21;9.50;99.90
15262;DHT22;7733;51.554;13.590;2023-05-07T02:19:47;9.50;99.90
15262;DHT22;7733;51.554;13.590;2023-05-07T02:22:13;9.50;99.90
15262;DHT22;7733;51.554;13.590;2023-05-07T02:24:38;9.60;99.90
15262;DHT22;7733;51.554;13.590;2023-05-07T02:27:04;9.60;99.90
15262;DHT22;7733;51.554;13.590;2023-05-07T02:29:30;9.70;99.90
15262;DHT22;7733;51.554;13.590;2023-05-07T02:31:56;9.70;99.90
15262;DHT22;7733;51.554;13.590;2023-05-07T02:34:21;9.50;99.90
15262;DHT22;7733;51.554;13.590;2023-05-07T02:36:47;9.40;99.90
15262;DHT22;7733;51.554;13.590;2023-05-07T02:39:13;9.40;99.90
15262;DHT22;7733;51.554;13.590;2023-05-07T02:41:40;9.50;99.90
15262;DHT22;7733;51.554;13.590;2023-05-07T02:44:06;9.40;99.90
15262;DHT22;7733;51.554;13.590;2023-05-07T02:46:32;9.50;99.90
15262;DHT22;7733;51.554;13.590;2023-05-07T02:48:58;9.40;99.90
15262;DHT22;7733;51.554;13.590;2023-05-07T02:51:25;9.40;99.90
15262;DHT22;7733;51.554;13.590;2023-05-07T02:53:52;9.40;99.90
15262;DHT22;7733;51.554;13.590;2023-05-07T02:56:17;9.50;99.90
15262;DHT22;7733;51.554;13.590;2023-05-07T02:58:43;9.50;99.90
15262;DHT22;7733;51.554;13.590;2023-05-07T03:01:09;9.40;99.90
15262;DHT22;7733;51.554;13.590;2023-05-07T03:03:35;9.30;99.90
15262;DHT22;7733;51.554;13.590;2023-05-07T03:06:01;9.30;99.90
15262;DHT22;7733;51.554;13.590;2023-05-07T03:08:27;9.30;99.90
15262;DHT22;7733;51.554;13.590;2023-05-07T03:10:53;9.40;99.90
15262;DHT22;7733;51.554;13.590;2023-05-07T03:13:19;9.40;99.90
15262;DHT22;7733;51.554;13.590;2023-05-07T03:15:44;9.50;99.90
15262;DHT22;7733;51.554;13.590;2023-05-07T03:18:10;9.50;99.90
15262;DHT22;7733;51.554;13.590;2023-05-07T03:20:36;9.50;99.90
15262;DHT22;7733;51.554;13.590;2023-05-07T03:23:02;9.50;99.90
15262;DHT22;7733;51.554;13.590;2023-05-07T03:25:28;9.60;99.90
15262;DHT22;7733;51.554;13.590;2023-05-07T03:27:55;9.60;99.90
15262;DHT22;7733;51.554;13.590;2023-05-07T03:30:22;9.60;99.90
15262;DHT22;7733;51.554;13.590;2023-05-07T03:32:47;9.80;99.90
15262;DHT22;7733;51.554;13.590;2023-05-07T03:35:13;9.80;99.90
15262;DHT22;7733;51.554;13.590;2023-05-07T03:37:40;9.70;99.90
15262;DHT22;7733;51.554;13.590;2023-05-07T03:40:06;9.60;99.90
15262;DHT22;7733;51.554;13.590;2023-05-07T03:42:33;9.50;99.90
15262;DHT22;7733;51.554;13.590;2023-05-07T03:44:59;9.70;99.90
15262;DHT22;7733;51.554;13.590;2023-05-07T03:47:24;9.70;99.90
15262;DHT22;7733;51.554;13.590;2023-05-07T03:49:50;9.80;99.90
15262;DHT22;7733;51.554;13.590;2023-05-07T03:52:18;9.80;99.90
15262;DHT22;7733;51.554;13.590;2023-05-07T03:54:49;9.70;99.90
15262;DHT22;7733;51.554;13.590;2023-05-07T03:57:15;9.80;99.90
15262;DHT22;7733;51.554;13.590;2023-05-07T03:59:40;9.70;99.90
15262;DHT22;7733;51.554;13.590;2023-05-07T04:02:06;9.70;99.90
15262;DHT22;7733;51.554;13.590;2023-05-07T04:04:32;9.60;99.90
15262;DHT22;7733;51.554;13.590;2023-05-07T04:06:58;9.70;99.90
15262;DHT22;7733;51.554;13.590;2023-05-07T04:09:24;9.80;99.90
15262;DHT22;7733;51.554;13.590;2023-05-07T04:11:51;9.60;99.90
15262;DHT22;7733;51.554;13.590;2023-05-07T04:14:16;9.60;99.90
15262;DHT22;7733;51.554;13.590;2023-05-07T04:16:42;9.70;99.90
15262;DHT22;7733;51.554;13.590;2023-05-07T04:19:08;9.60;99.90
15262;DHT22;7733;51.554;13.590;2023-05-07T04:21:33;9.70;99.90
15262;DHT22;7733;51.554;13.590;2023-05-07T04:23:59;9.60;99.90
15262;DHT22;7733;51.554;13.590;2023-05-07T04:26:25;9.50;99.90
15262;DHT22;7733;51.554;13.590;2023-05-07T04:28:51;9.50;99.90
15262;DHT22;7733;51.554;13.590;2023-05-07T04:31:17;9.60;99.90
15262;DHT22;7733;51.554;13.590;2023-05-07T04:33:43;9.60;99.90
15262;DHT22;7733;51.554;13.590;2023-05-07T04:36:08;9.50;99.90
15262;DHT22;7733;51.554;13.590;2023-05-07T04:38:34;9.40;99.90
15262;DHT22;7733;51.554;13.590;2023-05-07T04:41:04;9.50;99.90
15262;DHT22;7733;51.554;13.590;2023-05-07T04:43:31;9.50;99.90
15262;DHT22;7733;51.554;13.590;2023-05-07T04:45:57;9.50;99.90
15262;DHT22;7733;51.554;13.590;2023-05-07T04:48:23;9.60;99.90
15262;DHT22;7733;51.554;13.590;2023-05-07T04:50:52;9.60;99.90
15262;DHT22;7733;51.554;13.590;2023-05-07T04:53:18;9.60;99.90
15262;DHT22;7733;51.554;13.590;2023-05-07T04:55:45;9.70;99.90
15262;DHT22;7733;51.554;13.590;2023-05-07T04:58:11;9.70;99.90
15262;DHT22;7733;51.554;13.590;2023-05-07T05:00:38;9.80;99.90
15262;DHT22;7733;51.554;13.590;2023-05-07T05:03:07;9.70;99.90
15262;DHT22;7733;51.554;13.590;2023-05-07T05:05:33;9.60;99.90
15262;DHT22;7733;51.554;13.590;2023-05-07T05:07:59;9.50;99.90
15262;DHT22;7733;51.554;13.590;2023-05-07T05:10:25;9.60;99.90
15262;DHT22;7733;51.554;13.590;2023-05-07T05:12:51;9.70;99.90
15262;DHT22;7733;51.554;13.590;2023-05-07T05:15:17;9.60;99.90
15262;DHT22;7733;51.554;13.590;2023-05-07T05:17:43;9.70;99.90
15262;DHT22;7733;51.554;13.590;2023-05-07T05:20:09;9.60;99.90
15262;DHT22;7733;51.554;13.590;2023-05-07T05:22:38;9.60;99.90
15262;DHT22;7733;51.554;13.590;2023-05-07T05:25:04;9.60;99.90
15262;DHT22;7733;51.554;13.590;2023-05-07T05:27:30;9.70;99.90
15262;DHT22;7733;51.554;13.590;2023-05-07T05:29:56;9.70;99.90
15262;DHT22;7733;51.554;13.590;2023-05-07T05:32:22;9.80;99.90
15262;DHT22;7733;51.554;13.590;2023-05-07T05:34:48;9.70;99.90
15262;DHT22;7733;51.554;13.590;2023-05-07T05:37:13;9.80;99.90
15262;DHT22;7733;51.554;13.590;2023-05-07T05:39:39;9.70;99.90
15262;DHT22;7733;51.554;13.590;2023-05-07T05:42:05;9.70;99.90
15262;DHT22;7733;51.554;13.590;2023-05-07T05:44:31;9.60;99.90
15262;DHT22;7733;51.554;13.590;2023-05-07T05:46:56;9.80;99.90
15262;DHT22;7733;51.554;13.590;2023-05-07T05:49:24;9.70;99.90
15262;DHT22;7733;51.554;13.590;2023-05-07T05:51:51;9.70;99.90
15262;DHT22;7733;51.554;13.590;2023-05-07T05:54:16;9.70;99.90
15262;DHT22;7733;51.554;13.590;2023-05-07T05:56:42;9.60;99.90
15262;DHT22;7733;51.554;13.590;2023-05-07T05:59:08;9.70;99.90
15262;DHT22;7733;51.554;13.590;2023-05-07T06:01:34;9.80;99.90
15262;DHT22;7733;51.554;13.590;2023-05-07T06:04:00;9.70;99.90
15262;DHT22;7733;51.554;13.590;2023-05-07T06:06:25;9.60;99.90
15262;DHT22;7733;51.554;13.590;2023-05-07T06:08:51;9.70;99.90
15262;DHT22;7733;51.554;13.590;2023-05-07T06:11:17;9.70;99.90
15262;DHT22;7733;51.554;13.590;2023-05-07T06:13:42;9.70;99.90
15262;DHT22;7733;51.554;13.590;2023-05-07T06:16:08;9.80;99.90
15262;DHT22;7733;51.554;13.590;2023-05-07T06:18:34;9.80;99.90
15262;DHT22;7733;51.554;13.590;2023-05-07T06:21:01;9.80;99.90
15262;DHT22;7733;51.554;13.590;2023-05-07T06:23:27;9.80;99.90
15262;DHT22;7733;51.554;13.590;2023-05-07T06:25:53;9.60;99.90
15262;DHT22;7733;51.554;13.590;2023-05-07T06:28:19;9.70;99.90
15262;DHT22;7733;51.554;13.590;2023-05-07T06:30:44;9.70;99.90
15262;DHT22;7733;51.554;13.590;2023-05-07T06:33:10;9.60;99.90
15262;DHT22;7733;51.554;13.590;2023-05-07T06:35:36;9.60;99.90
15262;DHT22;7733;51.554;13.590;2023-05-07T06:38:02;9.60;99.90
15262;DHT22;7733;51.554;13.590;2023-05-07T06:40:28;9.60;99.90
15262;DHT22;7733;51.554;13.590;2023-05-07T06:42:53;9.60;99.90
15262;DHT22;7733;51.554;13.590;2023-05-07T06:45:20;9.60;99.90
15262;DHT22;7733;51.554;13.590;2023-05-07T06:47:46;9.60;99.90
15262;DHT22;7733;51.554;13.590;2023-05-07T06:50:11;9.70;99.90
15262;DHT22;7733;51.554;13.590;2023-05-07T06:52:37;9.70;99.90
15262;DHT22;7733;51.554;13.590;2023-05-07T06:55:03;9.70;99.90
15262;DHT22;7733;51.554;13.590;2023-05-07T06:57:30;9.70;99.90
15262;DHT22;7733;51.554;13.590;2023-05-07T06:59:55;9.80;99.90
15262;DHT22;7733;51.554;13.590;2023-05-07T07:02:21;9.90;99.90
15262;DHT22;7733;51.554;13.590;2023-05-07T07:04:47;9.80;99.90
15262;DHT22;7733;51.554;13.590;2023-05-07T07:07:13;9.90;99.90
15262;DHT22;7733;51.554;13.590;2023-05-07T07:09:39;10.00;99.90
15262;DHT22;7733;51.554;13.590;2023-05-07T07:12:04;10.00;99.90
15262;DHT22;7733;51.554;13.590;2023-05-07T07:14:30;9.90;99.90
15262;DHT22;7733;51.554;13.590;2023-05-07T07:16:56;9.90;99.90
15262;DHT22;7733;51.554;13.590;2023-05-07T07:19:22;9.90;99.90
15262;DHT22;7733;51.554;13.590;2023-05-07T07:21:47;9.90;99.90
15262;DHT22;7733;51.554;13.590;2023-05-07T07:24:14;9.80;99.90
15262;DHT22;7733;51.554;13.590;2023-05-07T07:26:46;9.80;99.90
15262;DHT22;7733;51.554;13.590;2023-05-07T07:29:12;10.00;99.90
15262;DHT22;7733;51.554;13.590;2023-05-07T07:31:38;9.90;99.90
15262;DHT22;7733;51.554;13.590;2023-05-07T07:34:04;10.00;99.90
15262;DHT22;7733;51.554;13.590;2023-05-07T07:36:30;10.00;99.90
15262;DHT22;7733;51.554;13.590;2023-05-07T07:38:55;10.00;99.90
15262;DHT22;7733;51.554;13.590;2023-05-07T07:41:21;10.10;99.90
15262;DHT22;7733;51.554;13.590;2023-05-07T07:43:47;10.10;99.90
15262;DHT22;7733;51.554;13.590;2023-05-07T07:46:12;10.00;99.90
15262;DHT22;7733;51.554;13.590;2023-05-07T07:48:38;10.10;99.90
15262;DHT22;7733;51.554;13.590;2023-05-07T07:51:04;10.10;99.90
15262;DHT22;7733;51.554;13.590;2023-05-07T07:53:30;10.20;99.90
15262;DHT22;7733;51.554;13.590;2023-05-07T07:55:56;10.10;99.90
15262;DHT22;7733;51.554;13.590;2023-05-07T07:58:22;10.10;99.90
15262;DHT22;7733;51.554;13.590;2023-05-07T08:00:48;10.20;99.90
15262;DHT22;7733;51.554;13.590;2023-05-07T08:03:14;10.20;99.90
15262;DHT22;7733;51.554;13.590;2023-05-07T08:05:42;10.20;99.90
15262;DHT22;7733;51.554;13.590;2023-05-07T08:08:08;10.30;99.90
15262;DHT22;7733;51.554;13.590;2023-05-07T08:10:34;10.40;99.90
15262;DHT22;7733;51.554;13.590;2023-05-07T08:13:03;10.50;99.90
15262;DHT22;7733;51.554;13.590;2023-05-07T08:15:30;10.60;99.90
15262;DHT22;7733;51.554;13.590;2023-05-07T08:17:56;10.60;99.90
15262;DHT22;7733;51.554;13.590;2023-05-07T08:20:25;10.40;99.90
15262;DHT22;7733;51.554;13.590;2023-05-07T08:22:51;10.40;99.90
15262;DHT22;7733;51.554;13.590;2023-05-07T08:25:17;10.40;99.90
15262;DHT22;7733;51.554;13.590;2023-05-07T08:27:43;10.50;99.90
15262;DHT22;7733;51.554;13.590;2023-05-07T08:30:10;10.60;99.90
15262;DHT22;7733;51.554;13.590;2023-05-07T08:32:36;10.70;99.90
15262;DHT22;7733;51.554;13.590;2023-05-07T08:35:02;10.80;99.90
15262;DHT22;7733;51.554;13.590;2023-05-07T08:37:28;10.70;99.90
15262;DHT22;7733;51.554;13.590;2023-05-07T08:39:54;10.90;99.90
15262;DHT22;7733;51.554;13.590;2023-05-07T08:42:20;10.90;99.90
15262;DHT22;7733;51.554;13.590;2023-05-07T08:44:51;10.90;99.90
15262;DHT22;7733;51.554;13.590;2023-05-07T08:47:22;10.70;99.90
15262;DHT22;7733;51.554;13.590;2023-05-07T08:49:53;10.80;99.90
15262;DHT22;7733;51.554;13.590;2023-05-07T08:52:20;10.80;99.90
15262;DHT22;7733;51.554;13.590;2023-05-07T08:54:46;10.80;99.90
15262;DHT22;7733;51.554;13.590;2023-05-07T08:57:13;10.80;99.90
15262;DHT22;7733;51.554;13.590;2023-05-07T08:59:39;10.90;99.90
15262;DHT22;7733;51.554;13.590;2023-05-07T09:02:06;10.80;99.90
15262;DHT22;7733;51.554;13.590;2023-05-07T09:04:35;10.80;99.90
15262;DHT22;7733;51.554;13.590;2023-05-07T09:07:01;10.90;99.90
15262;DHT22;7733;51.554;13.590;2023-05-07T09:09:32;10.90;99.90
15262;DHT22;7733;51.554;13.590;2023-05-07T09:11:59;10.80;99.90
15262;DHT22;7733;51.554;13.590;2023-05-07T09:14:25;10.80;99.90
15262;DHT22;7733;51.554;13.590;2023-05-07T09:16:54;10.70;99.90
15262;DHT22;7733;51.554;13.590;2023-05-07T09:19:23;10.60;99.90
15262;DHT22;7733;51.554;13.590;2023-05-07T09:21:57;10.80;99.90
15262;DHT22;7733;51.554;13.590;2023-05-07T09:24:24;10.90;99.90
15262;DHT22;7733;51.554;13.590;2023-05-07T09:26:49;11.00;99.90
15262;DHT22;7733;51.554;13.590;2023-05-07T09:29:15;10.90;99.90
15262;DHT22;7733;51.554;13.590;2023-05-07T09:31:42;11.00;99.90
15262;DHT22;7733;51.554;13.590;2023-05-07T09:34:08;11.00;99.90
15262;DHT22;7733;51.554;13.590;2023-05-07T09:36:34;11.00;99.90
15262;DHT22;7733;51.554;13.590;2023-05-07T09:39:00;10.80;99.90
15262;DHT22;7733;51.554;13.590;2023-05-07T09:41:26;10.80;99.90
15262;DHT22;7733;51.554;13.590;2023-05-07T09:43:55;10.90;99.90
15262;DHT22;7733;51.554;13.590;2023-05-07T09:46:25;10.90;99.90
15262;DHT22;7733;51.554;13.590;2023-05-07T09:48:57;10.80;99.90
15262;DHT22;7733;51.554;13.590;2023-05-07T09:51:51;10.90;99.90
15262;DHT22;7733;51.554;13.590;2023-05-07T09:54:18;11.10;99.90
15262;DHT22;7733;51.554;13.590;2023-05-07T09:56:45;11.00;99.90
15262;DHT22;7733;51.554;13.590;2023-05-07T09:59:14;11.10;99.90
15262;DHT22;7733;51.554;13.590;2023-05-07T10:01:42;11.10;99.90
15262;DHT22;7733;51.554;13.590;2023-05-07T10:04:14;11.20;99.90
15262;DHT22;7733;51.554;13.590;2023-05-07T10:06:40;11.20;99.90
15262;DHT22;7733;51.554;13.590;2023-05-07T10:09:07;11.20;99.90
15262;DHT22;7733;51.554;13.590;2023-05-07T10:11:35;11.10;99.90
15262;DHT22;7733;51.554;13.590;2023-05-07T10:14:05;11.20;99.90
15262;DHT22;7733;51.554;13.590;2023-05-07T10:16:35;11.40;99.90
15262;DHT22;7733;51.554;13.590;2023-05-07T10:19:08;11.40;99.90
15262;DHT22;7733;51.554;13.590;2023-05-07T10:21:37;11.50;99.90
15262;DHT22;7733;51.554;13.590;2023-05-07T10:24:16;11.50;99.90
15262;DHT22;7733;51.554;13.590;2023-05-07T10:26:51;11.50;99.90
15262;DHT22;7733;51.554;13.590;2023-05-07T10:29:21;11.60;99.90
15262;DHT22;7733;51.554;13.590;2023-05-07T10:35:36;11.80;99.90
15262;DHT22;7733;51.554;13.590;2023-05-07T10:38:05;11.90;99.90
15262;DHT22;7733;51.554;13.590;2023-05-07T10:40:31;11.90;99.90
15262;DHT22;7733;51.554;13.590;2023-05-07T10:42:59;11.80;99.90
15262;DHT22;7733;51.554;13.590;2023-05-07T10:45:27;11.80;99.90
15262;DHT22;7733;51.554;13.590;2023-05-07T10:48:14;11.70;99.90
15262;DHT22;7733;51.554;13.590;2023-05-07T10:50:44;11.80;99.90
15262;DHT22;7733;51.554;13.590;2023-05-07T10:55:49;12.10;99.90
15262;DHT22;7733;51.554;13.590;2023-05-07T10:58:24;12.10;99.90
15262;DHT22;7733;51.554;13.590;2023-05-07T11:01:01;11.90;99.90
15262;DHT22;7733;51.554;13.590;2023-05-07T11:03:28;11.80;99.90
15262;DHT22;7733;51.554;13.590;2023-05-07T11:06:14;11.90;99.90
15262;DHT22;7733;51.554;13.590;2023-05-07T11:08:57;12.00;99.90
15262;DHT22;7733;51.554;13.590;2023-05-07T11:11:49;12.00;99.90
15262;DHT22;7733;51.554;13.590;2023-05-07T11:17:10;12.30;99.90
15262;DHT22;7733;51.554;13.590;2023-05-07T11:19:53;12.40;99.90
15262;DHT22;7733;51.554;13.590;2023-05-07T11:25:02;12.70;99.90
15262;DHT22;7733;51.554;13.590;2023-05-07T11:27:29;12.80;99.90
15262;DHT22;7733;51.554;13.590;2023-05-07T11:29:56;12.70;99.90
15262;DHT22;7733;51.554;13.590;2023-05-07T11:32:28;12.80;99.90
15262;DHT22;7733;51.554;13.590;2023-05-07T11:34:57;12.70;99.90
15262;DHT22;7733;51.554;13.590;2023-05-07T11:37:25;12.50;99.90
15262;DHT22;7733;51.554;13.590;2023-05-07T11:40:03;12.60;99.90
15262;DHT22;7733;51.554;13.590;2023-05-07T11:45:00;12.70;99.90
15262;DHT22;7733;51.554;13.590;2023-05-07T11:47:30;12.80;99.90
15262;DHT22;7733;51.554;13.590;2023-05-07T11:49:56;12.80;99.90
15262;DHT22;7733;51.554;13.590;2023-05-07T11:52:27;12.90;99.90
15262;DHT22;7733;51.554;13.590;2023-05-07T11:54:55;13.00;99.90
15262;DHT22;7733;51.554;13.590;2023-05-07T11:57:24;12.90;99.90
15262;DHT22;7733;51.554;13.590;2023-05-07T11:59:57;12.90;99.90
15262;DHT22;7733;51.554;13.590;2023-05-07T12:02:24;12.80;99.90
15262;DHT22;7733;51.554;13.590;2023-05-07T12:04:52;12.80;99.90
15262;DHT22;7733;51.554;13.590;2023-05-07T12:07:18;12.80;99.90
15262;DHT22;7733;51.554;13.590;2023-05-07T12:09:45;12.80;99.90
15262;DHT22;7733;51.554;13.590;2023-05-07T12:12:11;12.60;99.90
15262;DHT22;7733;51.554;13.590;2023-05-07T12:14:42;12.70;99.90
15262;DHT22;7733;51.554;13.590;2023-05-07T12:17:10;12.70;99.90
15262;DHT22;7733;51.554;13.590;2023-05-07T12:19:37;12.70;99.90
15262;DHT22;7733;51.554;13.590;2023-05-07T12:22:05;12.80;99.90
15262;DHT22;7733;51.554;13.590;2023-05-07T12:25:03;12.90;99.90
15262;DHT22;7733;51.554;13.590;2023-05-07T12:27:29;12.90;99.90
15262;DHT22;7733;51.554;13.590;2023-05-07T12:29:57;12.80;99.90
15262;DHT22;7733;51.554;13.590;2023-05-07T12:32:24;12.60;99.90
15262;DHT22;7733;51.554;13.590;2023-05-07T12:34:51;12.60;99.90
15262;DHT22;7733;51.554;13.590;2023-05-07T12:37:22;12.50;99.90
15262;DHT22;7733;51.554;13.590;2023-05-07T12:39:50;12.50;99.90
15262;DHT22;7733;51.554;13.590;2023-05-07T12:42:35;12.60;99.90
15262;DHT22;7733;51.554;13.590;2023-05-07T12:45:11;12.60;99.90
15262;DHT22;7733;51.554;13.590;2023-05-07T12:47:38;12.60;99.90
15262;DHT22;7733;51.554;13.590;2023-05-07T12:50:07;12.60;99.90
15262;DHT22;7733;51.554;13.590;2023-05-07T12:52:34;12.60;99.90
15262;DHT22;7733;51.554;13.590;2023-05-07T12:55:07;12.70;99.90
15262;DHT22;7733;51.554;13.590;2023-05-07T12:57:48;12.80;99.90
15262;DHT22;7733;51.554;13.590;2023-05-07T13:00:16;12.90;99.90
15262;DHT22;7733;51.554;13.590;2023-05-07T13:02:43;12.90;99.90
15262;DHT22;7733;51.554;13.590;2023-05-07T13:05:12;12.70;99.90
15262;DHT22;7733;51.554;13.590;2023-05-07T13:07:39;12.70;99.90
15262;DHT22;7733;51.554;13.590;2023-05-07T13:10:06;12.70;99.90
15262;DHT22;7733;51.554;13.590;2023-05-07T13:12:32;12.70;99.90
15262;DHT22;7733;51.554;13.590;2023-05-07T13:14:58;12.60;99.90
15262;DHT22;7733;51.554;13.590;2023-05-07T13:17:24;12.60;99.90
15262;DHT22;7733;51.554;13.590;2023-05-07T13:19:50;12.60;99.90
15262;DHT22;7733;51.554;13.590;2023-05-07T13:22:15;12.60;99.90
15262;DHT22;7733;51.554;13.590;2023-05-07T13:24:41;12.50;99.90
15262;DHT22;7733;51.554;13.590;2023-05-07T13:27:08;12.40;99.90
15262;DHT22;7733;51.554;13.590;2023-05-07T13:29:34;12.50;99.90
15262;DHT22;7733;51.554;13.590;2023-05-07T13:32:00;12.40;99.90
15262;DHT22;7733;51.554;13.590;2023-05-07T13:34:27;12.50;99.90
15262;DHT22;7733;51.554;13.590;2023-05-07T13:36:53;12.50;99.90
15262;DHT22;7733;51.554;13.590;2023-05-07T13:39:19;12.60;99.90
15262;DHT22;7733;51.554;13.590;2023-05-07T13:41:45;12.40;99.90
15262;DHT22;7733;51.554;13.590;2023-05-07T13:44:11;12.40;99.90
15262;DHT22;7733;51.554;13.590;2023-05-07T13:46:36;12.50;99.90
15262;DHT22;7733;51.554;13.590;2023-05-07T13:49:02;12.60;99.90
15262;DHT22;7733;51.554;13.590;2023-05-07T13:51:28;12.50;99.90
15262;DHT22;7733;51.554;13.590;2023-05-07T13:53:54;12.30;99.90
15262;DHT22;7733;51.554;13.590;2023-05-07T13:56:19;12.40;99.90
15262;DHT22;7733;51.554;13.590;2023-05-07T13:58:46;12.40;99.90
15262;DHT22;7733;51.554;13.590;2023-05-07T14:01:12;12.40;99.90
15262;DHT22;7733;51.554;13.590;2023-05-07T14:03:38;12.50;99.90
15262;DHT22;7733;51.554;13.590;2023-05-07T14:06:05;12.50;99.90
15262;DHT22;7733;51.554;13.590;2023-05-07T14:08:31;12.50;99.90
15262;DHT22;7733;51.554;13.590;2023-05-07T14:10:56;12.40;99.90
15262;DHT22;7733;51.554;13.590;2023-05-07T14:13:22;12.40;99.90
15262;DHT22;7733;51.554;13.590;2023-05-07T14:15:48;12.40;99.90
15262;DHT22;7733;51.554;13.590;2023-05-07T14:18:14;12.40;99.90
15262;DHT22;7733;51.554;13.590;2023-05-07T14:20:41;12.50;99.90
15262;DHT22;7733;51.554;13.590;2023-05-07T14:23:09;12.50;99.90
15262;DHT22;7733;51.554;13.590;2023-05-07T14:25:35;12.60;99.90
15262;DHT22;7733;51.554;13.590;2023-05-07T14:28:00;12.50;99.90
15262;DHT22;7733;51.554;13.590;2023-05-07T14:30:26;12.60;99.90
15262;DHT22;7733;51.554;13.590;2023-05-07T14:32:52;12.50;99.90
15262;DHT22;7733;51.554;13.590;2023-05-07T14:35:18;12.60;99.90
15262;DHT22;7733;51.554;13.590;2023-05-07T14:37:43;12.50;99.90
15262;DHT22;7733;51.554;13.590;2023-05-07T14:40:09;12.50;99.90
15262;DHT22;7733;51.554;13.590;2023-05-07T14:42:35;12.70;99.90
15262;DHT22;7733;51.554;13.590;2023-05-07T14:45:02;12.70;99.90
15262;DHT22;7733;51.554;13.590;2023-05-07T14:47:28;12.80;99.90
15262;DHT22;7733;51.554;13.590;2023-05-07T14:49:54;12.90;99.90
15262;DHT22;7733;51.554;13.590;2023-05-07T14:52:20;12.80;99.90
15262;DHT22;7733;51.554;13.590;2023-05-07T14:54:46;12.80;99.90
15262;DHT22;7733;51.554;13.590;2023-05-07T14:57:13;12.60;99.90
15262;DHT22;7733;51.554;13.590;2023-05-07T14:59:41;12.50;99.90
15262;DHT22;7733;51.554;13.590;2023-05-07T15:02:08;12.50;99.90
15262;DHT22;7733;51.554;13.590;2023-05-07T15:04:35;12.50;99.90
15262;DHT22;7733;51.554;13.590;2023-05-07T15:07:01;12.40;99.90
15262;DHT22;7733;51.554;13.590;2023-05-07T15:09:26;12.30;99.90
15262;DHT22;7733;51.554;13.590;2023-05-07T15:11:52;12.40;99.90
15262;DHT22;7733;51.554;13.590;2023-05-07T15:14:18;12.50;99.90
15262;DHT22;7733;51.554;13.590;2023-05-07T15:16:44;12.50;99.90
15262;DHT22;7733;51.554;13.590;2023-05-07T15:19:10;12.50;99.90
15262;DHT22;7733;51.554;13.590;2023-05-07T15:21:36;12.40;99.90
15262;DHT22;7733;51.554;13.590;2023-05-07T15:24:02;12.50;99.90
15262;DHT22;7733;51.554;13.590;2023-05-07T15:26:28;12.60;99.90
15262;DHT22;7733;51.554;13.590;2023-05-07T15:28:54;12.70;99.90
15262;DHT22;7733;51.554;13.590;2023-05-07T15:31:23;12.60;99.90
15262;DHT22;7733;51.554;13.590;2023-05-07T15:33:50;12.70;99.90
15262;DHT22;7733;51.554;13.590;2023-05-07T15:36:17;12.60;99.90
15262;DHT22;7733;51.554;13.590;2023-05-07T15:38:43;12.50;99.90
15262;DHT22;7733;51.554;13.590;2023-05-07T15:41:09;12.60;99.90
15262;DHT22;7733;51.554;13.590;2023-05-07T15:43:47;12.50;99.90
15262;DHT22;7733;51.554;13.590;2023-05-07T15:46:22;12.50;99.90
15262;DHT22;7733;51.554;13.590;2023-05-07T15:48:51;12.60;99.90
15262;DHT22;7733;51.554;13.590;2023-05-07T15:51:18;12.60;99.90